Time;durP1;ratioP1;P1;durP2;ratioP2;P2;SDS_P1;SDS_P2;PMS_P1;PMS_P2;Temp;Humidity;BMP_temperature;BMP_pressure;BME280_temperature;BME280_humidity;BME280_pressure;Samples;Min_cycle;Max_cycle;Signal;HPM_P1;HPM_P2
2023/07/11 00:00:52;;;;;;;7.55;5.35;;;;;;;15.98;100.00;98894.56;4171416;28;20111;-74
2023/07/11 00:02:53;;;;;;;6.07;4.57;;;;;;;15.89;100.00;98894.19;4171536;28;20053;-74
2023/07/11 00:04:53;;;;;;;5.38;4.30;;;;;;;15.82;100.00;98895.00;4171627;28;20055;-74
2023/07/11 00:06:54;;;;;;;6.65;4.68;;;;;;;15.75;100.00;98888.66;4160873;28;20063;-74
2023/07/11 00:08:54;;;;;;;5.40;4.72;;;;;;;15.73;100.00;98892.63;4157495;28;20030;-74
2023/07/11 00:10:55;;;;;;;7.80;4.75;;;;;;;15.68;100.00;98893.03;4157622;28;20088;-74
2023/07/11 00:12:55;;;;;;;5.72;5.05;;;;;;;15.64;100.00;98883.09;4155722;28;20088;-74
2023/07/11 00:14:56;;;;;;;8.80;4.90;;;;;;;15.59;100.00;98884.25;4165004;28;20045;-74
2023/07/11 00:16:57;;;;;;;6.00;4.72;;;;;;;15.52;100.00;98887.06;4157434;28;20411;-74
2023/07/11 00:18:57;;;;;;;4.78;4.05;;;;;;;15.48;100.00;98883.50;4163895;28;20048;-74
2023/07/11 00:20:58;;;;;;;5.82;4.40;;;;;;;15.47;100.00;98884.66;4167107;28;20076;-74
2023/07/11 00:22:58;;;;;;;5.78;5.03;;;;;;;15.43;100.00;98879.09;4157014;28;20565;-74
2023/07/11 00:24:58;;;;;;;7.13;4.80;;;;;;;15.45;100.00;98884.28;4159212;28;20121;-74
2023/07/11 00:26:58;;;;;;;6.00;4.32;;;;;;;15.45;100.00;98887.06;4160896;28;20124;-74
2023/07/11 00:29:01;;;;;;;6.13;4.70;;;;;;;15.40;100.00;98890.28;4165469;28;20085;-74
2023/07/11 00:31:01;;;;;;;8.77;4.47;;;;;;;15.27;100.00;98887.09;4161308;28;20114;-74
2023/07/11 00:33:01;;;;;;;4.90;4.28;;;;;;;15.25;100.00;98888.69;4170877;28;20037;-74
2023/07/11 00:35:02;;;;;;;8.90;4.55;;;;;;;15.22;100.00;98886.69;4159286;28;20049;-74
2023/07/11 00:37:03;;;;;;;7.30;4.82;;;;;;;15.21;100.00;98883.09;4166608;28;20389;-74
2023/07/11 00:39:04;;;;;;;5.05;4.45;;;;;;;15.22;100.00;98879.13;4157256;28;20547;-74
2023/07/11 00:41:07;;;;;;;6.30;4.65;;;;;;;15.17;100.00;98876.75;4164543;28;20079;-74
2023/07/11 00:43:11;;;;;;;;;;;;;;;15.20;100.00;98884.31;4170949;28;20269;-74
2023/07/11 00:45:49;;;;;;;5.20;4.50;;;;;;;15.20;100.00;98878.72;4168714;28;20335;-74
2023/07/11 00:47:49;;;;;;;7.55;4.40;;;;;;;15.15;100.00;98877.16;4158564;28;20389;-74
2023/07/11 00:49:54;;;;;;;6.03;4.47;;;;;;;15.16;100.00;98873.19;4162700;28;20045;-74
2023/07/11 00:51:59;;;;;;;6.03;4.82;;;;;;;15.19;100.00;98866.00;4163978;28;20091;-74
2023/07/11 00:54:03;;;;;;;5.68;4.55;;;;;;;15.18;100.00;98876.34;4163494;28;20110;-74
2023/07/11 00:56:06;;;;;;;5.78;4.43;;;;;;;15.10;100.00;98863.63;4161119;28;20057;-74
2023/07/11 00:58:07;;;;;;;6.55;4.57;;;;;;;15.05;100.00;98866.78;4164917;28;20152;-74
2023/07/11 01:00:08;;;;;;;5.93;4.70;;;;;;;15.01;100.00;98874.38;4161345;28;20138;-74
2023/07/11 01:02:13;;;;;;;5.43;4.68;;;;;;;15.02;100.00;98867.59;4157329;28;20091;-74
2023/07/11 01:04:15;;;;;;;6.97;4.78;;;;;;;15.02;100.00;98862.03;4156065;28;20171;-74
2023/07/11 01:06:21;;;;;;;6.97;4.93;;;;;;;14.97;100.00;98862.41;4161574;28;20039;-74
2023/07/11 01:08:22;;;;;;;5.95;4.57;;;;;;;14.94;100.00;98857.66;4171463;28;20270;-74
2023/07/11 01:10:22;;;;;;;5.80;4.75;;;;;;;14.85;100.00;98848.91;4166424;28;20512;-74
2023/07/11 01:12:23;;;;;;;7.45;4.47;;;;;;;14.84;100.00;98861.22;4156057;28;20481;-74
2023/07/11 01:14:25;;;;;;;8.63;4.25;;;;;;;14.81;100.00;98856.44;4156710;28;20465;-74
2023/07/11 01:16:25;;;;;;;9.38;5.30;;;;;;;14.75;100.00;98856.06;4161051;28;20040;-74
2023/07/11 01:18:26;;;;;;;5.70;4.60;;;;;;;14.79;100.00;98850.47;4165073;28;20100;-74
2023/07/11 01:20:26;;;;;;;6.95;4.70;;;;;;;14.78;100.00;98866.38;4156722;28;20053;-74
2023/07/11 01:22:29;;;;;;;6.70;4.82;;;;;;;14.74;100.00;98865.59;4158677;28;20195;-74
2023/07/11 01:24:30;;;;;;;6.07;4.90;;;;;;;14.65;100.00;98851.28;4156402;28;20158;-74
2023/07/11 01:26:30;;;;;;;7.72;4.97;;;;;;;14.58;100.00;98842.91;4162785;28;20045;-74
2023/07/11 01:28:31;;;;;;;6.78;4.60;;;;;;;14.57;100.00;98850.47;4171240;28;20132;-74
2023/07/11 01:30:31;;;;;;;7.85;5.50;;;;;;;14.49;100.00;98848.88;4156599;28;20045;-74
2023/07/11 01:32:32;;;;;;;5.65;4.60;;;;;;;14.44;100.00;98851.19;4159702;28;20055;-74
2023/07/11 01:34:32;;;;;;;6.00;4.68;;;;;;;14.40;100.00;98847.59;4160485;28;20427;-74
2023/07/11 01:36:33;;;;;;;7.65;5.25;;;;;;;14.36;100.00;98850.38;4156420;28;20041;-74
2023/07/11 01:38:34;;;;;;;5.15;4.47;;;;;;;14.33;100.00;98851.19;4156540;28;20088;-74
2023/07/11 01:40:34;;;;;;;5.97;4.72;;;;;;;14.37;100.00;98842.84;4156458;28;20334;-74
2023/07/11 01:42:35;;;;;;;6.55;4.88;;;;;;;14.42;100.00;98850.81;4155838;28;20167;-74
2023/07/11 01:44:35;;;;;;;7.75;5.40;;;;;;;14.41;100.00;98843.66;4170113;28;20053;-74
2023/07/11 01:46:35;;;;;;;6.40;4.90;;;;;;;14.38;100.00;98842.44;4165177;28;20079;-74
2023/07/11 01:48:36;;;;;;;7.53;5.25;;;;;;;14.30;100.00;98841.63;4167723;28;20052;-74
2023/07/11 01:50:36;;;;;;;13.75;5.70;;;;;;;14.28;100.00;98840.44;4164430;28;20115;-74
2023/07/11 01:52:37;;;;;;;5.95;5.22;;;;;;;14.24;100.00;98834.06;4155699;28;20072;-74
2023/07/11 01:54:37;;;;;;;10.35;5.35;;;;;;;14.20;100.00;98842.41;4167477;28;20061;-74
2023/07/11 01:56:37;;;;;;;8.90;5.30;;;;;;;14.16;100.00;98840.81;4166867;28;20060;-74
2023/07/11 01:58:38;;;;;;;10.45;5.75;;;;;;;14.09;100.00;98835.22;4156043;28;20084;-74
2023/07/11 02:00:38;;;;;;;9.30;6.32;;;;;;;14.05;100.00;98835.97;4160696;28;20072;-74
2023/07/11 02:02:39;;;;;;;8.23;5.50;;;;;;;14.00;100.00;98841.16;4157539;28;20466;-74
2023/07/11 02:04:39;;;;;;;7.65;6.18;;;;;;;13.95;100.00;98830.38;4162317;28;20218;-74
2023/07/11 02:06:39;;;;;;;9.68;6.28;;;;;;;13.94;100.00;98829.59;4157543;28;20105;-74
2023/07/11 02:08:40;;;;;;;7.90;5.68;;;;;;;13.93;100.00;98830.78;4159900;28;20041;-74
2023/07/11 02:10:40;;;;;;;8.40;6.20;;;;;;;13.92;100.00;98834.75;4163763;28;20508;-74
2023/07/11 02:12:40;;;;;;;6.47;5.43;;;;;;;13.91;100.00;98832.38;4173356;28;20265;-74
2023/07/11 02:14:42;;;;;;;10.20;6.97;;;;;;;13.87;100.00;98824.00;4161471;28;20318;-74
2023/07/11 02:16:45;;;;;;;9.95;5.72;;;;;;;13.85;100.00;98831.16;4172610;28;20067;-74
2023/07/11 02:18:45;;;;;;;8.52;6.78;;;;;;;13.84;100.00;98833.13;4159118;28;20039;-74
2023/07/11 02:20:46;;;;;;;10.25;6.72;;;;;;;13.82;100.00;98834.69;4166384;28;20505;-74
2023/07/11 02:22:46;;;;;;;7.18;6.47;;;;;;;13.76;100.00;98837.09;4172580;28;20100;-74
2023/07/11 02:24:46;;;;;;;8.90;6.22;;;;;;;13.69;100.00;98837.84;4160377;28;20045;-74
2023/07/11 02:26:47;;;;;;;8.88;6.18;;;;;;;13.69;100.00;98839.81;4159462;28;20539;-74
2023/07/11 02:28:47;;;;;;;9.27;5.72;;;;;;;13.65;100.00;98837.03;4159036;28;20150;-74
2023/07/11 02:30:49;;;;;;;7.28;5.90;;;;;;;13.67;100.00;98839.41;4159370;28;20099;-74
2023/07/11 02:32:49;;;;;;;12.55;6.28;;;;;;;13.62;100.00;98837.00;4170178;28;20488;-74
2023/07/11 02:34:50;;;;;;;8.98;5.55;;;;;;;13.61;100.00;98836.22;4159083;28;20037;-74
2023/07/11 02:36:50;;;;;;;12.18;6.60;;;;;;;13.61;100.00;98836.22;4159295;28;20037;-74
2023/07/11 02:38:51;;;;;;;7.63;6.85;;;;;;;13.57;100.00;98829.03;4162257;28;20055;-74
2023/07/11 02:40:51;;;;;;;8.30;6.90;;;;;;;13.54;100.00;98829.81;4165462;28;20033;-74
2023/07/11 02:42:51;;;;;;;8.18;5.75;;;;;;;13.48;100.00;98827.41;4169321;28;20754;-74
2023/07/11 02:44:52;;;;;;;10.00;6.68;;;;;;;13.46;100.00;98823.41;4159026;28;20444;-74
2023/07/11 02:49:48;;;;;;;7.63;6.10;;;;;;;13.41;100.00;98816.25;4161704;28;20092;-74
2023/07/11 02:51:49;;;;;;;9.60;5.68;;;;;;;13.44;100.00;98814.69;4167667;28;20041;-74
2023/07/11 02:53:49;;;;;;;7.82;5.60;;;;;;;13.50;100.00;98815.91;4167945;28;20393;-74
2023/07/11 02:55:51;;;;;;;7.72;5.90;;;;;;;13.57;100.00;98809.56;4158875;28;20049;-74
2023/07/11 02:57:51;;;;;;;11.55;5.65;;;;;;;13.60;100.00;98812.38;4166740;28;20032;-74
2023/07/11 02:59:51;;;;;;;6.82;5.32;;;;;;;13.57;100.00;98807.59;4158321;28;20451;-74
2023/07/11 03:01:52;;;;;;;10.50;5.78;;;;;;;13.53;100.00;98817.09;4159026;28;20887;-74
2023/07/11 03:03:52;;;;;;;7.07;4.78;;;;;;;13.42;100.00;98803.16;4157708;28;20038;-74
2023/07/11 03:05:53;;;;;;;8.93;4.80;;;;;;;13.35;100.00;98800.34;4158551;28;20080;-74
2023/07/11 03:07:54;;;;;;;8.27;5.28;;;;;;;13.31;100.00;98814.19;4167645;28;20469;-74
2023/07/11 03:09:54;;;;;;;6.03;4.82;;;;;;;13.25;100.00;98815.78;4173015;28;20153;-74
2023/07/11 03:11:54;;;;;;;6.47;5.10;;;;;;;13.26;100.00;98816.56;4159584;28;20075;-74
2023/07/11 03:13:55;;;;;;;7.45;4.78;;;;;;;13.24;100.00;98807.78;4157527;28;20045;-74
2023/07/11 03:15:59;;;;;;;7.03;4.90;;;;;;;13.25;100.00;98810.22;4167874;28;20088;-74
2023/07/11 03:18:00;;;;;;;8.43;5.15;;;;;;;13.25;100.00;98804.66;4162394;28;20087;-74
2023/07/11 03:20:00;;;;;;;9.02;5.07;;;;;;;13.26;100.00;98800.69;4158441;28;20132;-74
2023/07/11 03:22:01;;;;;;;9.25;5.18;;;;;;;13.34;100.00;98794.00;4170360;28;20052;-74
2023/07/11 03:24:01;;;;;;;7.15;5.18;;;;;;;13.37;100.00;98803.53;4158628;28;20131;-74
2023/07/11 03:26:02;;;;;;;6.78;5.32;;;;;;;13.36;100.00;98799.16;4173332;28;20036;-74
2023/07/11 03:28:03;;;;;;;9.15;4.82;;;;;;;13.28;100.00;98789.19;4166354;28;20029;-74
2023/07/11 03:30:04;;;;;;;7.57;5.22;;;;;;;13.20;100.00;98786.34;4166350;28;20381;-74
2023/07/11 03:32:05;;;;;;;9.00;5.25;;;;;;;13.18;100.00;98794.25;4170696;28;20381;-74
2023/07/11 03:34:06;;;;;;;7.70;5.60;;;;;;;13.18;100.00;98787.91;4159083;28;20029;-74
2023/07/11 03:36:06;;;;;;;11.75;5.72;;;;;;;13.23;100.00;98787.56;4173396;28;20036;-74
2023/07/11 03:38:06;;;;;;;10.02;5.63;;;;;;;13.25;100.00;98790.75;4170051;28;20459;-74
2023/07/11 03:40:08;;;;;;;9.70;5.50;;;;;;;13.26;100.00;98791.56;4161845;28;20068;-73
2023/07/11 03:42:08;;;;;;;8.48;5.50;;;;;;;13.22;100.00;98791.53;4157602;28;20047;-74
2023/07/11 03:44:10;;;;;;;6.68;5.47;;;;;;;13.18;100.00;98788.69;4160397;28;20563;-74
2023/07/11 03:46:10;;;;;;;7.82;5.07;;;;;;;13.13;100.00;98782.72;4158573;28;20453;-74
2023/07/11 03:48:10;;;;;;;7.50;5.07;;;;;;;13.13;100.00;98791.03;4156134;28;20107;-74
2023/07/11 03:50:10;;;;;;;7.70;4.85;;;;;;;13.12;100.00;98783.91;4159808;28;20203;-74
2023/07/11 03:52:11;;;;;;;6.50;4.68;;;;;;;13.13;100.00;98785.47;4157889;28;20378;-74
2023/07/11 03:54:11;;;;;;;11.70;5.43;;;;;;;13.13;100.00;98779.94;4155982;28;20040;-74
2023/07/11 03:56:11;;;;;;;7.60;5.43;;;;;;;13.12;100.00;98779.13;4166321;28;20116;-74
2023/07/11 03:58:12;;;;;;;8.93;5.05;;;;;;;13.12;100.00;98770.00;4163382;28;20053;-74
2023/07/11 04:00:13;;;;;;;8.88;5.93;;;;;;;13.12;100.00;98773.56;4164281;28;20112;-74
2023/07/11 04:02:13;;;;;;;8.75;5.43;;;;;;;13.11;100.00;98771.19;4161551;28;20086;-74
2023/07/11 04:04:13;;;;;;;6.95;4.72;;;;;;;13.15;100.00;98772.78;4156944;28;20462;-74
2023/07/11 04:06:14;;;;;;;8.50;4.90;;;;;;;13.17;100.00;98777.97;4156861;28;20026;-74
2023/07/11 04:08:14;;;;;;;7.20;5.18;;;;;;;13.18;100.00;98776.78;4157925;28;20037;-74
2023/07/11 04:10:14;;;;;;;7.28;5.15;;;;;;;13.20;100.00;98778.03;4159263;28;20377;-74
2023/07/11 04:12:15;;;;;;;5.85;4.82;;;;;;;13.21;100.00;98776.03;4161617;28;20045;-74
2023/07/11 04:14:15;;;;;;;6.38;4.50;;;;;;;13.27;100.00;98782.03;4162213;28;20445;-74
2023/07/11 04:16:15;;;;;;;12.32;5.95;;;;;;;13.35;100.00;98772.56;4160751;28;20112;-74
2023/07/11 04:18:16;;;;;;;7.90;5.55;;;;;;;13.39;100.00;98768.59;4162433;28;20064;-74
2023/07/11 04:20:16;;;;;;;9.73;5.60;;;;;;;13.47;100.00;98769.41;4160817;28;20091;-74
2023/07/11 04:22:17;;;;;;;8.80;4.95;;;;;;;13.51;100.00;98778.59;4159745;28;20430;-74
2023/07/11 04:24:17;;;;;;;12.50;5.95;;;;;;;13.58;100.00;98777.81;4160784;28;20052;-74
2023/07/11 04:26:18;;;;;;;9.57;5.85;;;;;;;13.61;100.00;98768.69;4157311;28;20126;-74
2023/07/11 04:28:18;;;;;;;11.32;6.57;;;;;;;13.60;100.00;98772.66;4164661;28;20574;-74
2023/07/11 04:30:18;;;;;;;9.75;5.75;;;;;;;13.65;100.00;98775.03;4159284;28;20284;-74
2023/07/11 04:32:19;;;;;;;11.55;6.80;;;;;;;13.66;100.00;98766.34;4156903;28;20072;-74
2023/07/11 04:34:19;;;;;;;9.32;6.28;;;;;;;13.73;100.00;98776.66;4156543;28;20108;-74
2023/07/11 04:36:19;;;;;;;9.57;7.28;;;;;;;13.76;100.00;98770.34;4166144;28;20033;-74
2023/07/11 04:38:20;;;;;;;10.18;7.00;;;;;;;13.84;100.00;98773.94;4172236;28;20067;-74
2023/07/11 04:40:20;;;;;;;11.57;6.75;;;;;;;13.86;100.00;98772.34;4159243;28;21024;-74
2023/07/11 04:42:20;;;;;;;13.55;7.35;;;;;;;13.90;100.00;98767.63;4156552;28;20447;-74
2023/07/11 04:44:21;;;;;;;12.50;6.68;;;;;;;13.98;100.00;98758.09;4155113;28;20091;-74
2023/07/11 04:46:21;;;;;;;8.93;6.10;;;;;;;14.07;100.00;98763.28;4157603;28;20062;-73
2023/07/11 04:48:21;;;;;;;11.23;7.13;;;;;;;14.20;100.00;98766.47;4156672;28;20429;-74
2023/07/11 04:50:22;;;;;;;9.30;6.45;;;;;;;14.30;100.00;98757.31;4166432;28;20228;-73
2023/07/11 04:52:24;;;;;;;7.72;6.88;;;;;;;14.42;100.00;98756.16;4170646;28;20144;-74
2023/07/11 04:54:25;;;;;;;14.75;6.90;;;;;;;14.50;100.00;98758.59;4163653;28;20041;-73
2023/07/11 04:56:25;;;;;;;11.18;6.82;;;;;;;14.59;100.00;98761.75;4156255;28;20041;-73
2023/07/11 04:58:29;;;;;;;10.68;6.82;;;;;;;14.70;100.00;98753.41;4164032;28;20052;-73
2023/07/11 05:00:29;;;;;;;8.55;6.65;;;;;;;14.80;100.00;98749.00;4157739;28;20041;-73
2023/07/11 05:02:29;;;;;;;8.98;7.00;;;;;;;14.93;100.00;98747.41;4100647;28;20132;-73
2023/07/11 05:04:29;;;;;;;8.05;7.25;;;;;;;15.04;100.00;98755.72;4153467;28;20040;-73
2023/07/11 05:06:30;;;;;;;8.02;6.97;;;;;;;15.15;100.00;98750.94;4158031;28;20128;-73
2023/07/11 05:08:30;;;;;;;8.68;6.65;;;;;;;15.23;100.00;98741.38;4159984;28;20089;-73
2023/07/11 05:10:31;;;;;;;9.60;7.15;;;;;;;15.34;100.00;98739.34;4159089;28;20052;-73
2023/07/11 05:12:31;;;;;;;10.88;7.57;;;;;;;15.42;100.00;98740.91;4158730;28;20591;-73
2023/07/11 05:14:32;;;;;;;10.23;7.93;;;;;;;15.53;100.00;98732.47;4162624;28;20044;-73
2023/07/11 05:16:32;;;;;;;13.63;7.78;;;;;;;15.62;100.00;98737.66;4158022;28;20029;-74
2023/07/11 05:18:34;;;;;;;13.90;8.50;;;;;;;15.70;100.00;98736.41;4161906;28;20493;-73
2023/07/11 05:20:35;;;;;;;9.13;6.97;;;;;;;15.81;100.00;98736.38;4165042;28;20057;-73
2023/07/11 05:22:35;;;;;;;11.15;7.78;;;;;;;15.91;100.00;98738.31;4158830;28;20374;-73
2023/07/11 05:24:35;;;;;;;9.13;7.13;;;;;;;16.01;100.00;98734.66;4157691;28;20431;-73
2023/07/11 05:26:36;;;;;;;7.68;6.82;;;;;;;16.13;100.00;98733.38;4161521;28;20135;-73
2023/07/11 05:28:36;;;;;;;10.52;6.85;;;;;;;16.24;100.00;98732.13;4159081;28;20324;-73
2023/07/11 05:30:37;;;;;;;7.43;6.35;;;;;;;16.38;100.00;98734.00;4163424;28;20060;-73
2023/07/11 05:32:38;;;;;;;11.35;7.65;;;;;;;16.47;100.00;98731.56;4157348;28;20319;-73
2023/07/11 05:34:38;;;;;;;9.95;7.05;;;;;;;16.57;100.00;98727.06;4156914;28;20389;-74
2023/07/11 05:36:38;;;;;;;10.07;7.65;;;;;;;16.66;100.00;98727.41;4163690;28;20037;-73
2023/07/11 05:38:39;;;;;;;7.65;6.25;;;;;;;16.76;100.00;98725.72;4159087;28;20052;-74
2023/07/11 05:40:43;;;;;;;12.50;7.70;;;;;;;16.83;100.00;98720.06;4158714;28;20133;-73
2023/07/11 05:42:43;;;;;;;18.90;8.07;;;;;;;16.92;100.00;98725.19;4154635;28;20065;-73
2023/07/11 05:44:43;;;;;;;13.95;8.68;;;;;;;16.99;100.00;98719.53;4163845;28;20080;-73
2023/07/11 05:46:44;;;;;;;13.85;8.00;;;;;;;17.07;100.00;98724.63;4163277;28;20316;-73
2023/07/11 05:48:44;;;;;;;12.15;6.80;;;;;;;17.15;100.00;98719.75;4162181;28;20358;-73
2023/07/11 05:50:44;;;;;;;7.78;6.57;;;;;;;17.26;100.00;98708.44;4163623;28;20041;-73
2023/07/11 05:52:44;;;;;;;10.30;7.07;;;;;;;17.37;100.00;98712.69;4159204;28;20037;-74
2023/07/11 05:54:45;;;;;;;12.75;7.53;;;;;;;17.46;100.00;98719.78;4162557;28;20060;-73
2023/07/11 05:56:45;;;;;;;9.95;7.63;;;;;;;17.50;100.00;98714.94;4159264;28;20512;-73
2023/07/11 05:58:47;;;;;;;14.02;6.88;;;;;;;17.57;100.00;98710.06;4158797;28;20045;-73
2023/07/11 06:00:50;;;;;;;7.18;6.28;;;;;;;17.65;100.00;98703.16;4159302;28;20579;-73
2023/07/11 06:02:50;;;;;;;10.27;6.90;;;;;;;17.70;100.00;98707.50;4158228;28;20041;-74
2023/07/11 06:04:51;;;;;;;10.77;6.63;;;;;;;17.80;100.00;98709.38;4159328;28;20134;-74
2023/07/11 06:06:51;;;;;;;9.93;7.22;;;;;;;17.86;100.00;98695.69;4158781;28;20045;-74
2023/07/11 06:08:51;;;;;;;10.05;7.18;;;;;;;17.95;100.00;98693.16;4157663;28;20053;-73
2023/07/11 06:10:55;;;;;;;9.32;6.63;;;;;;;18.06;100.00;98701.41;4158715;28;20044;-74
2023/07/11 06:12:55;;;;;;;10.05;7.13;;;;;;;18.17;100.00;98699.25;4158352;28;20349;-74
2023/07/11 06:14:56;;;;;;;8.80;6.40;;;;;;;18.25;100.00;98695.91;4160558;28;20033;-74
2023/07/11 06:16:56;;;;;;;12.90;6.65;;;;;;;18.35;100.00;98691.34;4159675;28;20045;-74
2023/07/11 06:18:56;;;;;;;7.95;6.35;;;;;;;18.45;100.00;98687.59;4161379;28;20128;-74
2023/07/11 06:20:57;;;;;;;11.05;6.32;;;;;;;18.56;100.00;98689.41;4162496;28;20383;-74
2023/07/11 06:22:57;;;;;;;8.10;6.80;;;;;;;18.65;100.00;98682.06;4160888;28;20037;-74
2023/07/11 06:24:59;;;;;;;8.07;6.20;;;;;;;18.74;100.00;98684.31;4160510;28;20517;-74
2023/07/11 06:27:00;;;;;;;9.15;6.53;;;;;;;18.86;100.00;98677.28;4158649;28;20033;-74
2023/07/11 06:29:00;;;;;;;9.00;6.18;;;;;;;18.93;100.00;98677.94;4159290;28;20099;-74
2023/07/11 06:31:01;;;;;;;8.27;5.57;;;;;;;18.99;100.00;98667.81;4158739;28;20084;-74
2023/07/11 06:33:01;;;;;;;9.45;6.00;;;;;;;19.09;100.00;98666.00;4158476;28;20037;-74
2023/07/11 06:35:02;;;;;;;10.88;6.18;;;;;;;19.23;100.00;98665.75;4158456;28;20369;-74
2023/07/11 06:37:02;;;;;;;8.05;5.82;;;;;;;19.33;100.00;98663.94;4158872;28;20025;-74
2023/07/11 06:39:03;;;;;;;7.78;5.53;;;;;;;19.47;100.00;98663.63;4172566;28;20045;-74
2023/07/11 06:41:03;;;;;;;6.72;5.72;;;;;;;19.64;100.00;98656.88;4173890;28;20048;-74
2023/07/11 06:43:03;;;;;;;7.78;5.95;;;;;;;19.78;100.00;98655.78;4172145;28;20045;-74
2023/07/11 06:45:04;;;;;;;9.45;6.25;;;;;;;19.93;100.00;98651.41;4172242;28;20069;-74
2023/07/11 06:47:05;;;;;;;8.60;6.35;;;;;;;20.08;100.00;98648.25;4158400;28;20037;-74
2023/07/11 06:49:05;;;;;;;6.97;5.88;;;;;;;20.18;100.00;98656.41;4161818;28;20045;-74
2023/07/11 06:51:06;;;;;;;6.78;5.90;;;;;;;20.27;100.00;98644.56;4174178;28;20365;-74
2023/07/11 06:53:06;;;;;;;6.55;5.30;;;;;;;20.39;100.00;98654.31;4157638;28;20370;-74
2023/07/11 06:55:07;;;;;;;10.73;7.05;;;;;;;20.54;100.00;98652.75;4159021;28;20129;-74
2023/07/11 06:57:07;;;;;;;7.75;5.97;;;;;;;20.68;100.00;98657.19;4158872;28;20432;-74
2023/07/11 06:59:08;;;;;;;8.20;6.10;;;;;;;20.77;100.00;98657.38;4160125;28;20050;-74
2023/07/11 07:01:09;;;;;;;9.23;6.50;;;;;;;20.88;99.85;98657.09;4173975;28;20075;-74
2023/07/11 07:03:11;;;;;;;9.60;6.00;;;;;;;21.00;99.41;98647.91;4169043;28;20069;-74
2023/07/11 07:05:11;;;;;;;11.45;6.65;;;;;;;21.10;97.60;98648.84;4174393;28;20503;-74
2023/07/11 07:07:12;;;;;;;6.05;5.43;;;;;;;21.13;97.05;98645.16;4165097;28;20249;-74
2023/07/11 07:09:12;;;;;;;12.13;6.10;;;;;;;21.18;97.94;98636.13;4158448;28;20065;-74
2023/07/11 07:11:12;;;;;;;7.55;6.10;;;;;;;21.35;98.15;98646.16;4158906;28;20473;-74
2023/07/11 07:13:14;;;;;;;7.30;6.13;;;;;;;21.45;97.49;98642.22;4157774;28;20481;-74
2023/07/11 07:15:14;;;;;;;8.27;6.50;;;;;;;21.56;96.62;98644.72;4158540;28;20045;-74
2023/07/11 07:17:14;;;;;;;6.85;5.80;;;;;;;21.71;96.81;98642.25;4160121;28;20368;-74
2023/07/11 07:19:15;;;;;;;8.48;6.15;;;;;;;21.82;96.72;98637.84;4169020;28;20050;-74
2023/07/11 07:21:15;;;;;;;10.27;6.25;;;;;;;21.98;94.91;98634.13;4167243;28;20040;-74
2023/07/11 07:23:15;;;;;;;7.05;5.70;;;;;;;22.14;94.28;98634.03;4167904;28;20058;-74
2023/07/11 07:25:16;;;;;;;6.95;5.95;;;;;;;22.29;92.14;98634.38;4158424;28;20045;-74
2023/07/11 07:27:17;;;;;;;8.18;6.13;;;;;;;22.41;93.50;98635.56;4158593;28;20081;-74
2023/07/11 07:29:17;;;;;;;6.82;5.43;;;;;;;22.55;92.07;98634.31;4157805;28;20046;-74
2023/07/11 07:31:18;;;;;;;9.07;5.93;;;;;;;22.66;89.50;98621.41;4161912;28;20386;-74
2023/07/11 07:33:23;;;;;;;11.57;6.13;;;;;;;22.75;89.82;98617.09;4157334;28;20045;-74
2023/07/11 07:35:23;;;;;;;6.78;5.65;;;;;;;22.83;89.31;98613.56;4157627;28;20060;-74
2023/07/11 07:37:24;;;;;;;6.65;5.60;;;;;;;22.92;89.25;98610.88;4158291;28;20034;-74
2023/07/11 07:39:24;;;;;;;6.70;5.43;;;;;;;23.00;89.38;98605.72;4158530;28;20436;-74
2023/07/11 07:41:26;;;;;;;8.32;6.30;;;;;;;23.14;89.78;98605.22;4164816;28;20064;-74
2023/07/11 07:43:28;;;;;;;7.65;5.97;;;;;;;23.33;86.63;98606.09;4171708;28;20037;-74
2023/07/11 07:45:28;;;;;;;7.10;5.60;;;;;;;23.41;87.79;98595.31;4168994;28;20129;-74
2023/07/11 07:47:28;;;;;;;6.85;6.15;;;;;;;23.56;87.66;98596.34;4158080;28;20553;-74
2023/07/11 07:49:29;;;;;;;8.98;6.30;;;;;;;23.73;87.22;98591.28;4157678;28;20142;-74
2023/07/11 07:51:29;;;;;;;10.07;5.38;;;;;;;23.88;84.19;98597.16;4157683;28;20126;-74
2023/07/11 07:53:30;;;;;;;8.20;6.57;;;;;;;23.88;84.47;98588.69;4157427;28;20081;-74
2023/07/11 07:55:36;;;;;;;7.30;5.60;;;;;;;23.83;85.12;98573.13;4158008;28;20096;-74
2023/07/11 07:57:37;;;;;;;7.25;5.95;;;;;;;23.90;85.57;98574.88;4157778;28;20048;-74
2023/07/11 07:59:37;;;;;;;7.60;6.00;;;;;;;24.00;85.14;98568.78;4157805;28;20045;-74
2023/07/11 08:01:37;;;;;;;9.18;6.60;;;;;;;24.17;84.41;98572.13;4158304;28;20404;-74
2023/07/11 08:03:38;;;;;;;9.07;7.05;;;;;;;24.36;84.33;98564.50;4157042;28;20045;-74
2023/07/11 08:05:39;;;;;;;8.20;6.13;;;;;;;24.44;81.75;98554.44;4166597;28;20147;-74
2023/07/11 08:07:39;;;;;;;11.55;6.93;;;;;;;24.48;82.76;98546.56;4159577;28;20419;-74
2023/07/11 08:09:39;;;;;;;9.25;6.53;;;;;;;24.66;83.11;98548.66;4157667;28;20042;-74
2023/07/11 08:11:43;;;;;;;11.50;6.15;;;;;;;24.72;81.89;98543.13;4157768;28;20450;-74
2023/07/11 08:13:44;;;;;;;7.43;5.78;;;;;;;24.87;81.64;98542.00;4156762;28;20076;-74
2023/07/11 08:15:44;;;;;;;7.88;6.57;;;;;;;24.94;81.93;98547.34;4157969;28;20049;-74
2023/07/11 08:17:46;;;;;;;11.65;6.60;;;;;;;25.03;81.52;98535.25;4157520;28;20049;-75
2023/07/11 08:19:46;;;;;;;8.60;6.38;;;;;;;25.05;80.93;98535.56;4156938;28;20050;-74
2023/07/11 08:21:46;;;;;;;9.98;6.93;;;;;;;25.12;79.28;98532.41;4157536;28;20057;-74
2023/07/11 08:23:47;;;;;;;9.30;6.47;;;;;;;25.14;79.90;98532.72;4157084;28;20041;-74
2023/07/11 08:25:52;;;;;;;8.00;6.65;;;;;;;25.18;79.36;98530.50;4166496;28;20049;-74
2023/07/11 08:27:52;;;;;;;10.50;6.65;;;;;;;25.24;78.66;98539.16;4156804;28;20151;-74
2023/07/11 08:29:53;;;;;;;10.57;6.63;;;;;;;25.32;78.93;98539.56;4157095;28;20069;-75
2023/07/11 08:31:54;;;;;;;7.25;6.22;;;;;;;25.25;78.38;98537.88;4157772;28;20037;-75
2023/07/11 08:33:54;;;;;;;7.70;6.75;;;;;;;25.30;77.74;98534.41;4156294;28;20049;-74
2023/07/11 08:35:56;;;;;;;9.20;6.32;;;;;;;25.33;76.63;98524.97;4156640;28;20100;-75
2023/07/11 08:37:56;;;;;;;8.95;6.50;;;;;;;25.44;77.67;98524.44;4157329;28;20076;-74
2023/07/11 08:39:56;;;;;;;7.47;6.53;;;;;;;25.56;76.33;98512.09;4169255;28;20041;-74
2023/07/11 08:42:01;;;;;;;7.40;6.13;;;;;;;25.74;75.73;98511.28;4171649;28;20548;-74
2023/07/11 08:44:08;;;;;;;7.15;6.45;;;;;;;25.96;74.56;98519.50;4164476;28;20145;-75
2023/07/11 08:46:14;;;;;;;8.75;6.38;;;;;;;26.01;72.53;98510.34;4156454;28;20501;-75
2023/07/11 08:48:24;;;;;;;7.40;6.60;;;;;;;26.00;73.11;98501.06;4162321;28;20119;-75
2023/07/11 08:50:29;;;;;;;7.85;6.50;;;;;;;26.02;74.16;98507.00;4161358;28;20480;-74
2023/07/11 08:52:31;;;;;;;9.43;6.78;;;;;;;26.05;72.53;98502.41;4171328;28;20080;-75
2023/07/11 08:54:39;;;;;;;6.63;5.93;;;;;;;26.02;72.66;98501.34;4163449;28;20558;-75
2023/07/11 08:56:43;;;;;;;8.40;6.40;;;;;;;26.04;72.24;98495.19;4171563;28;20033;-75
2023/07/11 08:58:45;;;;;;;6.80;6.10;;;;;;;26.10;70.82;98496.09;4161937;28;20044;-75
2023/07/11 09:00:48;;;;;;;10.07;7.10;;;;;;;26.10;71.39;98486.81;4156994;28;20045;-75
2023/07/11 09:02:56;;;;;;;8.27;6.20;;;;;;;26.22;70.26;98492.22;4155651;28;20033;-75
2023/07/11 09:04:58;;;;;;;8.20;7.07;;;;;;;26.40;67.40;98485.66;4156806;28;20037;-75
2023/07/11 09:07:04;;;;;;;8.25;6.88;;;;;;;26.51;69.15;98487.94;4168056;28;20077;-75
2023/07/11 09:09:05;;;;;;;7.93;6.97;;;;;;;26.56;64.08;98481.56;4171049;28;20045;-75
2023/07/11 09:11:21;;;;;;;7.78;6.78;;;;;;;26.42;67.26;98471.78;4171956;28;20032;-75
2023/07/11 09:13:46;;;;;;;9.13;7.43;;;;;;;26.44;66.24;98471.28;4170110;28;20037;-74
2023/07/11 09:16:18;;;;;;;8.10;6.43;;;;;;;26.47;66.62;98475.97;4170888;28;20060;-74
2023/07/11 09:18:37;;;;;;;7.03;6.32;;;;;;;26.61;64.36;98469.56;4170021;28;20045;-75
2023/07/11 09:21:09;;;;;;;8.27;7.20;;;;;;;26.76;64.61;98459.00;4156629;28;20429;-75
2023/07/11 09:23:57;;;;;;;10.55;7.35;;;;;;;27.05;64.63;98463.91;4117133;28;20071;-74
2023/07/11 09:26:02;;;;;;;10.73;7.20;;;;;;;27.21;62.83;98471.13;4155750;28;20039;-74
2023/07/11 09:28:23;;;;;;;12.20;7.50;;;;;;;27.21;62.73;98465.47;4156011;28;20096;-75
2023/07/11 09:30:34;;;;;;;9.97;7.80;;;;;;;27.27;63.07;98459.88;4168703;28;20045;-75